sensor_id;sensor_type;location;lat;lon;timestamp;P1;durP1;ratioP1;P2;durP2;ratioP2
20251;SDS011;10284;58.364;15.550;2023-06-14T00:00:09;7.30;;;3.30;;
20251;SDS011;10284;58.364;15.550;2023-06-14T00:02:35;4.97;;;3.28;;
20251;SDS011;10284;58.364;15.550;2023-06-14T00:05:00;7.75;;;3.40;;
20251;SDS011;10284;58.364;15.550;2023-06-14T00:07:36;5.10;;;3.20;;
20251;SDS011;10284;58.364;15.550;2023-06-14T00:10:03;7.43;;;3.28;;
20251;SDS011;10284;58.364;15.550;2023-06-14T00:12:30;5.95;;;3.30;;
20251;SDS011;10284;58.364;15.550;2023-06-14T00:14:56;6.57;;;3.35;;
20251;SDS011;10284;58.364;15.550;2023-06-14T00:17:21;7.22;;;3.50;;
20251;SDS011;10284;58.364;15.550;2023-06-14T00:19:47;7.22;;;3.50;;
20251;SDS011;10284;58.364;15.550;2023-06-14T00:22:13;7.13;;;3.35;;
20251;SDS011;10284;58.364;15.550;2023-06-14T00:24:38;5.57;;;3.40;;
20251;SDS011;10284;58.364;15.550;2023-06-14T00:27:04;5.55;;;3.33;;
20251;SDS011;10284;58.364;15.550;2023-06-14T00:29:30;6.43;;;3.45;;
20251;SDS011;10284;58.364;15.550;2023-06-14T00:31:56;5.15;;;3.03;;
20251;SDS011;10284;58.364;15.550;2023-06-14T00:34:21;7.18;;;3.63;;
20251;SDS011;10284;58.364;15.550;2023-06-14T00:36:47;7.65;;;3.33;;
20251;SDS011;10284;58.364;15.550;2023-06-14T00:39:12;5.10;;;3.50;;
20251;SDS011;10284;58.364;15.550;2023-06-14T00:41:38;7.97;;;3.30;;
20251;SDS011;10284;58.364;15.550;2023-06-14T00:44:04;4.97;;;3.40;;
20251;SDS011;10284;58.364;15.550;2023-06-14T00:46:29;4.53;;;3.63;;
20251;SDS011;10284;58.364;15.550;2023-06-14T00:48:55;7.15;;;3.58;;
20251;SDS011;10284;58.364;15.550;2023-06-14T00:51:21;7.95;;;3.25;;
20251;SDS011;10284;58.364;15.550;2023-06-14T00:53:47;4.55;;;3.25;;
20251;SDS011;10284;58.364;15.550;2023-06-14T00:56:13;5.13;;;3.63;;
20251;SDS011;10284;58.364;15.550;2023-06-14T00:58:40;4.97;;;3.80;;
20251;SDS011;10284;58.364;15.550;2023-06-14T01:01:06;5.32;;;3.30;;
20251;SDS011;10284;58.364;15.550;2023-06-14T01:03:31;4.22;;;3.58;;
20251;SDS011;10284;58.364;15.550;2023-06-14T01:09:14;6.32;;;3.55;;
20251;SDS011;10284;58.364;15.550;2023-06-14T01:14:13;7.50;;;3.70;;
20251;SDS011;10284;58.364;15.550;2023-06-14T01:16:39;6.18;;;3.55;;
20251;SDS011;10284;58.364;15.550;2023-06-14T01:19:05;7.30;;;3.88;;
20251;SDS011;10284;58.364;15.550;2023-06-14T01:21:31;6.35;;;3.80;;
20251;SDS011;10284;58.364;15.550;2023-06-14T01:24:06;10.07;;;3.47;;
20251;SDS011;10284;58.364;15.550;2023-06-14T01:26:32;5.22;;;3.80;;
20251;SDS011;10284;58.364;15.550;2023-06-14T01:28:57;4.30;;;3.70;;
20251;SDS011;10284;58.364;15.550;2023-06-14T01:31:24;7.45;;;3.70;;
20251;SDS011;10284;58.364;15.550;2023-06-14T01:33:50;6.53;;;3.83;;
20251;SDS011;10284;58.364;15.550;2023-06-14T01:36:17;6.72;;;3.83;;
20251;SDS011;10284;58.364;15.550;2023-06-14T01:38:44;7.32;;;3.90;;
20251;SDS011;10284;58.364;15.550;2023-06-14T01:41:10;5.60;;;3.58;;
20251;SDS011;10284;58.364;15.550;2023-06-14T01:43:36;5.18;;;3.92;;
20251;SDS011;10284;58.364;15.550;2023-06-14T01:46:02;5.95;;;3.90;;
20251;SDS011;10284;58.364;15.550;2023-06-14T01:48:28;6.40;;;3.92;;
20251;SDS011;10284;58.364;15.550;2023-06-14T01:50:53;4.65;;;3.70;;
20251;SDS011;10284;58.364;15.550;2023-06-14T01:53:19;5.22;;;4.00;;
20251;SDS011;10284;58.364;15.550;2023-06-14T01:55:45;5.72;;;3.25;;
20251;SDS011;10284;58.364;15.550;2023-06-14T01:58:13;5.28;;;3.55;;
20251;SDS011;10284;58.364;15.550;2023-06-14T02:00:41;7.75;;;3.90;;
20251;SDS011;10284;58.364;15.550;2023-06-14T02:03:08;5.65;;;3.60;;
20251;SDS011;10284;58.364;15.550;2023-06-14T02:05:33;4.18;;;3.45;;
20251;SDS011;10284;58.364;15.550;2023-06-14T02:07:59;6.38;;;3.65;;
20251;SDS011;10284;58.364;15.550;2023-06-14T02:10:25;7.05;;;3.72;;
20251;SDS011;10284;58.364;15.550;2023-06-14T02:12:51;6.53;;;4.22;;
20251;SDS011;10284;58.364;15.550;2023-06-14T02:15:16;4.75;;;3.70;;
20251;SDS011;10284;58.364;15.550;2023-06-14T02:17:43;5.18;;;3.53;;
20251;SDS011;10284;58.364;15.550;2023-06-14T02:20:09;5.28;;;3.58;;
20251;SDS011;10284;58.364;15.550;2023-06-14T02:22:35;5.45;;;3.63;;
20251;SDS011;10284;58.364;15.550;2023-06-14T02:25:01;5.90;;;3.72;;
20251;SDS011;10284;58.364;15.550;2023-06-14T02:27:26;5.35;;;3.90;;
20251;SDS011;10284;58.364;15.550;2023-06-14T02:29:52;6.22;;;3.88;;
20251;SDS011;10284;58.364;15.550;2023-06-14T02:32:17;10.10;;;4.15;;
20251;SDS011;10284;58.364;15.550;2023-06-14T02:34:43;6.15;;;3.63;;
20251;SDS011;10284;58.364;15.550;2023-06-14T02:37:08;5.07;;;3.88;;
20251;SDS011;10284;58.364;15.550;2023-06-14T02:39:34;6.22;;;3.33;;
20251;SDS011;10284;58.364;15.550;2023-06-14T02:42:00;5.00;;;3.83;;
20251;SDS011;10284;58.364;15.550;2023-06-14T02:44:25;6.38;;;4.07;;
20251;SDS011;10284;58.364;15.550;2023-06-14T02:46:54;5.20;;;3.30;;
20251;SDS011;10284;58.364;15.550;2023-06-14T02:49:20;4.82;;;3.90;;
20251;SDS011;10284;58.364;15.550;2023-06-14T02:51:46;5.80;;;3.78;;
20251;SDS011;10284;58.364;15.550;2023-06-14T02:54:11;5.18;;;3.90;;
20251;SDS011;10284;58.364;15.550;2023-06-14T02:56:37;5.32;;;3.40;;
20251;SDS011;10284;58.364;15.550;2023-06-14T02:59:02;5.95;;;3.88;;
20251;SDS011;10284;58.364;15.550;2023-06-14T03:01:28;6.40;;;4.05;;
20251;SDS011;10284;58.364;15.550;2023-06-14T03:04:02;8.18;;;4.20;;
20251;SDS011;10284;58.364;15.550;2023-06-14T03:06:28;5.80;;;4.05;;
20251;SDS011;10284;58.364;15.550;2023-06-14T03:08:57;6.03;;;4.15;;
20251;SDS011;10284;58.364;15.550;2023-06-14T03:11:29;5.78;;;3.78;;
20251;SDS011;10284;58.364;15.550;2023-06-14T03:13:55;9.50;;;4.18;;
20251;SDS011;10284;58.364;15.550;2023-06-14T03:16:21;6.95;;;4.10;;
20251;SDS011;10284;58.364;15.550;2023-06-14T03:18:49;7.60;;;3.67;;
20251;SDS011;10284;58.364;15.550;2023-06-14T03:21:15;7.22;;;4.05;;
20251;SDS011;10284;58.364;15.550;2023-06-14T03:23:41;4.53;;;4.00;;
20251;SDS011;10284;58.364;15.550;2023-06-14T03:26:07;5.75;;;4.10;;
20251;SDS011;10284;58.364;15.550;2023-06-14T03:28:33;5.88;;;3.95;;
20251;SDS011;10284;58.364;15.550;2023-06-14T03:30:58;8.13;;;4.35;;
20251;SDS011;10284;58.364;15.550;2023-06-14T03:33:24;6.13;;;4.35;;
20251;SDS011;10284;58.364;15.550;2023-06-14T03:35:50;5.88;;;4.05;;
20251;SDS011;10284;58.364;15.550;2023-06-14T03:38:16;7.85;;;4.28;;
20251;SDS011;10284;58.364;15.550;2023-06-14T03:40:41;5.60;;;4.00;;
20251;SDS011;10284;58.364;15.550;2023-06-14T03:43:07;8.75;;;4.70;;
20251;SDS011;10284;58.364;15.550;2023-06-14T03:45:32;11.10;;;4.05;;
20251;SDS011;10284;58.364;15.550;2023-06-14T03:47:57;4.38;;;3.72;;
20251;SDS011;10284;58.364;15.550;2023-06-14T03:50:25;5.55;;;4.18;;
20251;SDS011;10284;58.364;15.550;2023-06-14T03:52:52;5.25;;;3.97;;
20251;SDS011;10284;58.364;15.550;2023-06-14T03:55:17;6.20;;;4.30;;
20251;SDS011;10284;58.364;15.550;2023-06-14T03:57:43;5.82;;;4.00;;
20251;SDS011;10284;58.364;15.550;2023-06-14T04:00:09;7.05;;;4.30;;
20251;SDS011;10284;58.364;15.550;2023-06-14T04:02:35;9.57;;;4.15;;
20251;SDS011;10284;58.364;15.550;2023-06-14T04:05:01;8.02;;;4.03;;
20251;SDS011;10284;58.364;15.550;2023-06-14T04:07:28;10.23;;;4.68;;
20251;SDS011;10284;58.364;15.550;2023-06-14T04:09:53;9.23;;;4.90;;
20251;SDS011;10284;58.364;15.550;2023-06-14T04:12:19;10.02;;;4.32;;
20251;SDS011;10284;58.364;15.550;2023-06-14T04:14:45;8.90;;;4.88;;
20251;SDS011;10284;58.364;15.550;2023-06-14T04:17:10;8.93;;;4.45;;
20251;SDS011;10284;58.364;15.550;2023-06-14T04:19:36;9.40;;;4.65;;
20251;SDS011;10284;58.364;15.550;2023-06-14T04:22:01;9.50;;;4.47;;
20251;SDS011;10284;58.364;15.550;2023-06-14T04:24:27;11.02;;;4.57;;
20251;SDS011;10284;58.364;15.550;2023-06-14T04:26:59;10.55;;;4.85;;
20251;SDS011;10284;58.364;15.550;2023-06-14T04:29:26;10.10;;;4.50;;
20251;SDS011;10284;58.364;15.550;2023-06-14T04:31:53;8.57;;;4.25;;
20251;SDS011;10284;58.364;15.550;2023-06-14T04:34:19;8.40;;;4.10;;
20251;SDS011;10284;58.364;15.550;2023-06-14T04:36:46;6.45;;;4.00;;
20251;SDS011;10284;58.364;15.550;2023-06-14T04:39:18;5.93;;;4.20;;
20251;SDS011;10284;58.364;15.550;2023-06-14T04:41:44;5.43;;;4.18;;
20251;SDS011;10284;58.364;15.550;2023-06-14T04:44:10;8.50;;;4.00;;
20251;SDS011;10284;58.364;15.550;2023-06-14T04:46:36;8.20;;;4.10;;
20251;SDS011;10284;58.364;15.550;2023-06-14T04:49:21;5.20;;;4.00;;
20251;SDS011;10284;58.364;15.550;2023-06-14T04:51:48;8.95;;;4.13;;
20251;SDS011;10284;58.364;15.550;2023-06-14T04:54:16;6.65;;;3.88;;
20251;SDS011;10284;58.364;15.550;2023-06-14T04:56:41;10.55;;;3.80;;
20251;SDS011;10284;58.364;15.550;2023-06-14T04:59:07;4.97;;;3.47;;
20251;SDS011;10284;58.364;15.550;2023-06-14T05:01:34;6.97;;;4.20;;
20251;SDS011;10284;58.364;15.550;2023-06-14T05:04:00;6.13;;;3.83;;
20251;SDS011;10284;58.364;15.550;2023-06-14T05:06:25;7.53;;;4.13;;
20251;SDS011;10284;58.364;15.550;2023-06-14T05:08:52;6.85;;;3.67;;
20251;SDS011;10284;58.364;15.550;2023-06-14T05:11:18;5.97;;;3.50;;
20251;SDS011;10284;58.364;15.550;2023-06-14T05:13:44;7.75;;;4.07;;
20251;SDS011;10284;58.364;15.550;2023-06-14T05:16:10;4.80;;;3.90;;
20251;SDS011;10284;58.364;15.550;2023-06-14T05:18:36;6.03;;;3.22;;
20251;SDS011;10284;58.364;15.550;2023-06-14T05:21:02;7.35;;;3.67;;
20251;SDS011;10284;58.364;15.550;2023-06-14T05:23:29;6.00;;;3.33;;
20251;SDS011;10284;58.364;15.550;2023-06-14T05:25:55;5.68;;;3.45;;
20251;SDS011;10284;58.364;15.550;2023-06-14T05:28:21;5.78;;;3.42;;
20251;SDS011;10284;58.364;15.550;2023-06-14T05:30:47;4.18;;;3.35;;
20251;SDS011;10284;58.364;15.550;2023-06-14T05:33:12;9.02;;;3.67;;
20251;SDS011;10284;58.364;15.550;2023-06-14T05:35:38;6.40;;;3.45;;
20251;SDS011;10284;58.364;15.550;2023-06-14T05:38:03;8.50;;;4.10;;
20251;SDS011;10284;58.364;15.550;2023-06-14T05:40:29;5.50;;;3.50;;
20251;SDS011;10284;58.364;15.550;2023-06-14T05:42:58;4.97;;;3.55;;
20251;SDS011;10284;58.364;15.550;2023-06-14T05:45:23;5.20;;;3.92;;
20251;SDS011;10284;58.364;15.550;2023-06-14T05:47:48;5.55;;;3.83;;
20251;SDS011;10284;58.364;15.550;2023-06-14T05:50:15;4.68;;;3.50;;
20251;SDS011;10284;58.364;15.550;2023-06-14T05:52:41;3.63;;;3.30;;
20251;SDS011;10284;58.364;15.550;2023-06-14T05:55:06;5.07;;;3.30;;
20251;SDS011;10284;58.364;15.550;2023-06-14T05:57:32;5.88;;;3.60;;
20251;SDS011;10284;58.364;15.550;2023-06-14T05:59:57;6.07;;;3.25;;
20251;SDS011;10284;58.364;15.550;2023-06-14T06:02:23;6.18;;;3.88;;
20251;SDS011;10284;58.364;15.550;2023-06-14T06:04:49;4.57;;;3.60;;
20251;SDS011;10284;58.364;15.550;2023-06-14T06:07:14;3.72;;;3.35;;
20251;SDS011;10284;58.364;15.550;2023-06-14T06:09:40;7.05;;;3.97;;
20251;SDS011;10284;58.364;15.550;2023-06-14T06:12:06;4.85;;;3.58;;
20251;SDS011;10284;58.364;15.550;2023-06-14T06:14:32;4.53;;;3.55;;
20251;SDS011;10284;58.364;15.550;2023-06-14T06:16:57;6.28;;;3.58;;
20251;SDS011;10284;58.364;15.550;2023-06-14T06:19:23;7.00;;;4.18;;
20251;SDS011;10284;58.364;15.550;2023-06-14T06:21:48;4.70;;;3.25;;
20251;SDS011;10284;58.364;15.550;2023-06-14T06:24:14;5.45;;;3.70;;
20251;SDS011;10284;58.364;15.550;2023-06-14T06:26:40;6.78;;;3.83;;
20251;SDS011;10284;58.364;15.550;2023-06-14T06:29:05;8.38;;;3.65;;
20251;SDS011;10284;58.364;15.550;2023-06-14T06:31:31;5.97;;;3.65;;
20251;SDS011;10284;58.364;15.550;2023-06-14T06:33:56;5.75;;;3.88;;
20251;SDS011;10284;58.364;15.550;2023-06-14T06:36:22;5.07;;;3.72;;
20251;SDS011;10284;58.364;15.550;2023-06-14T06:38:47;4.85;;;3.92;;
20251;SDS011;10284;58.364;15.550;2023-06-14T06:41:13;5.82;;;4.00;;
20251;SDS011;10284;58.364;15.550;2023-06-14T06:43:38;4.15;;;3.70;;
20251;SDS011;10284;58.364;15.550;2023-06-14T06:46:04;5.13;;;3.97;;
20251;SDS011;10284;58.364;15.550;2023-06-14T06:48:29;5.10;;;3.58;;
20251;SDS011;10284;58.364;15.550;2023-06-14T06:50:55;5.20;;;3.30;;
20251;SDS011;10284;58.364;15.550;2023-06-14T06:53:21;3.78;;;3.40;;
20251;SDS011;10284;58.364;15.550;2023-06-14T06:55:46;8.57;;;4.00;;
20251;SDS011;10284;58.364;15.550;2023-06-14T06:58:12;7.18;;;3.65;;
20251;SDS011;10284;58.364;15.550;2023-06-14T07:00:37;4.50;;;3.65;;
20251;SDS011;10284;58.364;15.550;2023-06-14T07:03:03;4.15;;;3.50;;
20251;SDS011;10284;58.364;15.550;2023-06-14T07:05:29;7.10;;;3.80;;
20251;SDS011;10284;58.364;15.550;2023-06-14T07:07:54;8.55;;;3.70;;
20251;SDS011;10284;58.364;15.550;2023-06-14T07:10:20;11.10;;;3.53;;
20251;SDS011;10284;58.364;15.550;2023-06-14T07:12:46;9.35;;;3.92;;
20251;SDS011;10284;58.364;15.550;2023-06-14T07:15:11;6.50;;;3.50;;
20251;SDS011;10284;58.364;15.550;2023-06-14T07:17:37;9.82;;;4.13;;
20251;SDS011;10284;58.364;15.550;2023-06-14T07:20:02;6.20;;;3.90;;
20251;SDS011;10284;58.364;15.550;2023-06-14T07:22:41;5.95;;;3.53;;
20251;SDS011;10284;58.364;15.550;2023-06-14T07:25:08;8.80;;;3.80;;
20251;SDS011;10284;58.364;15.550;2023-06-14T07:27:34;7.63;;;3.10;;
20251;SDS011;10284;58.364;15.550;2023-06-14T07:30:00;6.68;;;3.60;;
20251;SDS011;10284;58.364;15.550;2023-06-14T07:32:25;6.80;;;3.55;;
20251;SDS011;10284;58.364;15.550;2023-06-14T07:34:51;7.25;;;3.30;;
20251;SDS011;10284;58.364;15.550;2023-06-14T07:37:16;6.47;;;3.35;;
20251;SDS011;10284;58.364;15.550;2023-06-14T07:39:42;6.10;;;3.03;;
20251;SDS011;10284;58.364;15.550;2023-06-14T07:42:07;4.43;;;3.08;;
20251;SDS011;10284;58.364;15.550;2023-06-14T07:44:33;5.57;;;3.33;;
20251;SDS011;10284;58.364;15.550;2023-06-14T07:46:58;4.65;;;2.67;;
20251;SDS011;10284;58.364;15.550;2023-06-14T07:49:25;5.47;;;3.28;;
20251;SDS011;10284;58.364;15.550;2023-06-14T07:51:51;10.18;;;3.50;;
20251;SDS011;10284;58.364;15.550;2023-06-14T07:54:16;5.40;;;2.88;;
20251;SDS011;10284;58.364;15.550;2023-06-14T07:56:42;8.15;;;2.80;;
20251;SDS011;10284;58.364;15.550;2023-06-14T07:59:07;4.63;;;2.72;;
20251;SDS011;10284;58.364;15.550;2023-06-14T08:01:33;7.28;;;3.05;;
20251;SDS011;10284;58.364;15.550;2023-06-14T08:03:59;6.60;;;3.20;;
20251;SDS011;10284;58.364;15.550;2023-06-14T08:06:24;4.25;;;2.95;;
20251;SDS011;10284;58.364;15.550;2023-06-14T08:08:51;6.25;;;2.75;;
20251;SDS011;10284;58.364;15.550;2023-06-14T08:11:16;6.35;;;2.90;;
20251;SDS011;10284;58.364;15.550;2023-06-14T08:13:41;4.57;;;3.05;;
20251;SDS011;10284;58.364;15.550;2023-06-14T08:16:07;8.40;;;3.00;;
20251;SDS011;10284;58.364;15.550;2023-06-14T08:18:32;4.93;;;2.65;;
20251;SDS011;10284;58.364;15.550;2023-06-14T08:20:58;9.43;;;3.35;;
20251;SDS011;10284;58.364;15.550;2023-06-14T08:23:24;4.85;;;3.38;;
20251;SDS011;10284;58.364;15.550;2023-06-14T08:25:49;6.93;;;3.03;;
20251;SDS011;10284;58.364;15.550;2023-06-14T08:28:15;6.25;;;2.83;;
20251;SDS011;10284;58.364;15.550;2023-06-14T08:30:41;3.38;;;3.08;;
20251;SDS011;10284;58.364;15.550;2023-06-14T08:33:07;5.15;;;3.15;;
20251;SDS011;10284;58.364;15.550;2023-06-14T08:35:33;7.32;;;3.13;;
20251;SDS011;10284;58.364;15.550;2023-06-14T08:37:58;10.30;;;3.28;;
20251;SDS011;10284;58.364;15.550;2023-06-14T08:40:23;5.07;;;3.03;;
20251;SDS011;10284;58.364;15.550;2023-06-14T08:42:53;3.92;;;3.13;;
20251;SDS011;10284;58.364;15.550;2023-06-14T08:45:22;4.35;;;3.10;;
20251;SDS011;10284;58.364;15.550;2023-06-14T08:47:49;4.90;;;2.97;;
20251;SDS011;10284;58.364;15.550;2023-06-14T08:50:20;7.65;;;3.30;;
20251;SDS011;10284;58.364;15.550;2023-06-14T08:52:48;6.88;;;3.15;;
20251;SDS011;10284;58.364;15.550;2023-06-14T08:55:18;4.65;;;2.78;;
20251;SDS011;10284;58.364;15.550;2023-06-14T08:57:45;5.97;;;2.95;;
20251;SDS011;10284;58.364;15.550;2023-06-14T09:00:12;3.97;;;3.10;;
20251;SDS011;10284;58.364;15.550;2023-06-14T09:02:38;4.30;;;3.30;;
20251;SDS011;10284;58.364;15.550;2023-06-14T09:05:08;5.15;;;3.17;;
20251;SDS011;10284;58.364;15.550;2023-06-14T09:07:38;8.30;;;3.28;;
20251;SDS011;10284;58.364;15.550;2023-06-14T09:10:06;4.35;;;2.88;;
20251;SDS011;10284;58.364;15.550;2023-06-14T09:12:33;6.90;;;2.95;;
20251;SDS011;10284;58.364;15.550;2023-06-14T09:14:59;6.43;;;3.40;;
20251;SDS011;10284;58.364;15.550;2023-06-14T09:17:24;4.03;;;2.88;;
20251;SDS011;10284;58.364;15.550;2023-06-14T09:19:50;5.40;;;2.83;;
20251;SDS011;10284;58.364;15.550;2023-06-14T09:22:16;6.55;;;3.20;;
20251;SDS011;10284;58.364;15.550;2023-06-14T09:24:41;3.30;;;2.97;;
20251;SDS011;10284;58.364;15.550;2023-06-14T09:27:07;5.75;;;3.53;;
20251;SDS011;10284;58.364;15.550;2023-06-14T09:29:33;5.80;;;3.10;;
20251;SDS011;10284;58.364;15.550;2023-06-14T09:31:58;6.00;;;2.90;;
20251;SDS011;10284;58.364;15.550;2023-06-14T09:34:24;4.15;;;3.10;;
20251;SDS011;10284;58.364;15.550;2023-06-14T09:36:49;4.50;;;3.17;;
20251;SDS011;10284;58.364;15.550;2023-06-14T09:39:16;4.63;;;2.90;;
20251;SDS011;10284;58.364;15.550;2023-06-14T09:41:43;4.15;;;3.30;;
20251;SDS011;10284;58.364;15.550;2023-06-14T09:44:09;7.47;;;3.40;;
20251;SDS011;10284;58.364;15.550;2023-06-14T09:46:36;6.32;;;3.33;;
20251;SDS011;10284;58.364;15.550;2023-06-14T09:49:02;7.60;;;3.30;;
20251;SDS011;10284;58.364;15.550;2023-06-14T09:51:30;5.55;;;3.15;;
20251;SDS011;10284;58.364;15.550;2023-06-14T09:53:59;3.55;;;3.00;;
20251;SDS011;10284;58.364;15.550;2023-06-14T09:56:36;6.75;;;3.40;;
20251;SDS011;10284;58.364;15.550;2023-06-14T09:59:04;5.15;;;3.38;;
20251;SDS011;10284;58.364;15.550;2023-06-14T10:01:31;4.10;;;2.92;;
20251;SDS011;10284;58.364;15.550;2023-06-14T10:04:00;5.18;;;3.00;;
20251;SDS011;10284;58.364;15.550;2023-06-14T10:06:28;3.88;;;3.03;;
20251;SDS011;10284;58.364;15.550;2023-06-14T10:08:56;6.13;;;3.33;;
20251;SDS011;10284;58.364;15.550;2023-06-14T10:11:25;3.80;;;3.03;;
20251;SDS011;10284;58.364;15.550;2023-06-14T10:13:51;5.22;;;3.22;;
20251;SDS011;10284;58.364;15.550;2023-06-14T10:16:19;4.22;;;2.90;;
20251;SDS011;10284;58.364;15.550;2023-06-14T10:24:12;4.72;;;3.08;;
20251;SDS011;10284;58.364;15.550;2023-06-14T10:26:49;3.95;;;3.28;;
20251;SDS011;10284;58.364;15.550;2023-06-14T10:29:16;4.50;;;3.20;;
20251;SDS011;10284;58.364;15.550;2023-06-14T10:34:31;7.20;;;3.10;;
20251;SDS011;10284;58.364;15.550;2023-06-14T10:37:12;4.90;;;3.05;;
20251;SDS011;10284;58.364;15.550;2023-06-14T10:39:42;5.47;;;3.08;;
20251;SDS011;10284;58.364;15.550;2023-06-14T10:42:10;4.00;;;3.30;;
20251;SDS011;10284;58.364;15.550;2023-06-14T10:44:46;3.60;;;3.08;;
20251;SDS011;10284;58.364;15.550;2023-06-14T10:47:25;4.43;;;3.13;;
20251;SDS011;10284;58.364;15.550;2023-06-14T10:50:02;6.18;;;3.53;;
20251;SDS011;10284;58.364;15.550;2023-06-14T10:52:39;9.02;;;3.60;;
20251;SDS011;10284;58.364;15.550;2023-06-14T10:57:49;3.50;;;3.20;;
20251;SDS011;10284;58.364;15.550;2023-06-14T11:00:23;6.43;;;3.60;;
20251;SDS011;10284;58.364;15.550;2023-06-14T11:05:53;5.97;;;3.30;;
20251;SDS011;10284;58.364;15.550;2023-06-14T11:10:59;3.67;;;3.30;;
20251;SDS011;10284;58.364;15.550;2023-06-14T11:13:25;5.40;;;3.80;;
20251;SDS011;10284;58.364;15.550;2023-06-14T11:15:56;3.63;;;3.22;;
20251;SDS011;10284;58.364;15.550;2023-06-14T11:18:23;5.90;;;3.58;;
20251;SDS011;10284;58.364;15.550;2023-06-14T11:20:55;6.07;;;3.40;;
20251;SDS011;10284;58.364;15.550;2023-06-14T11:23:21;3.80;;;3.40;;
20251;SDS011;10284;58.364;15.550;2023-06-14T11:25:50;5.20;;;3.85;;
20251;SDS011;10284;58.364;15.550;2023-06-14T11:28:16;4.57;;;3.40;;
20251;SDS011;10284;58.364;15.550;2023-06-14T11:30:41;6.80;;;2.90;;
20251;SDS011;10284;58.364;15.550;2023-06-14T11:33:09;4.45;;;3.85;;
20251;SDS011;10284;58.364;15.550;2023-06-14T11:35:35;4.53;;;3.53;;
20251;SDS011;10284;58.364;15.550;2023-06-14T11:38:01;6.05;;;3.45;;
20251;SDS011;10284;58.364;15.550;2023-06-14T11:40:27;9.13;;;3.85;;
20251;SDS011;10284;58.364;15.550;2023-06-14T11:42:59;5.05;;;3.85;;
20251;SDS011;10284;58.364;15.550;2023-06-14T11:45:25;5.40;;;3.47;;
20251;SDS011;10284;58.364;15.550;2023-06-14T11:47:51;5.65;;;3.80;;
20251;SDS011;10284;58.364;15.550;2023-06-14T11:50:19;5.32;;;3.78;;
20251;SDS011;10284;58.364;15.550;2023-06-14T11:52:44;4.85;;;3.78;;
20251;SDS011;10284;58.364;15.550;2023-06-14T11:55:09;5.80;;;3.42;;
20251;SDS011;10284;58.364;15.550;2023-06-14T11:57:35;5.88;;;3.47;;
20251;SDS011;10284;58.364;15.550;2023-06-14T12:00:04;4.47;;;3.25;;
20251;SDS011;10284;58.364;15.550;2023-06-14T12:02:37;3.88;;;3.50;;
20251;SDS011;10284;58.364;15.550;2023-06-14T12:05:06;4.47;;;3.60;;
20251;SDS011;10284;58.364;15.550;2023-06-14T12:07:35;6.35;;;3.45;;
20251;SDS011;10284;58.364;15.550;2023-06-14T12:10:05;4.50;;;3.47;;
20251;SDS011;10284;58.364;15.550;2023-06-14T12:12:34;8.00;;;3.83;;
20251;SDS011;10284;58.364;15.550;2023-06-14T12:15:02;10.63;;;3.75;;
20251;SDS011;10284;58.364;15.550;2023-06-14T12:17:33;5.70;;;3.90;;
20251;SDS011;10284;58.364;15.550;2023-06-14T12:20:04;8.70;;;3.90;;
20251;SDS011;10284;58.364;15.550;2023-06-14T12:22:39;6.30;;;3.50;;
20251;SDS011;10284;58.364;15.550;2023-06-14T12:25:22;4.17;;;3.60;;
20251;SDS011;10284;58.364;15.550;2023-06-14T12:30:24;4.35;;;3.40;;
20251;SDS011;10284;58.364;15.550;2023-06-14T12:32:49;4.97;;;3.50;;
20251;SDS011;10284;58.364;15.550;2023-06-14T12:35:16;4.28;;;3.63;;
20251;SDS011;10284;58.364;15.550;2023-06-14T12:37:42;4.20;;;3.58;;
20251;SDS011;10284;58.364;15.550;2023-06-14T12:40:08;4.50;;;3.67;;
20251;SDS011;10284;58.364;15.550;2023-06-14T12:42:34;5.88;;;3.40;;
20251;SDS011;10284;58.364;15.550;2023-06-14T12:45:00;4.25;;;3.53;;
20251;SDS011;10284;58.364;15.550;2023-06-14T12:47:25;4.25;;;3.50;;
20251;SDS011;10284;58.364;15.550;2023-06-14T12:49:51;6.47;;;3.63;;
20251;SDS011;10284;58.364;15.550;2023-06-14T12:52:17;6.70;;;3.80;;
20251;SDS011;10284;58.364;15.550;2023-06-14T12:54:42;9.20;;;3.50;;
20251;SDS011;10284;58.364;15.550;2023-06-14T12:57:08;5.25;;;3.53;;
20251;SDS011;10284;58.364;15.550;2023-06-14T12:59:34;4.95;;;3.30;;
20251;SDS011;10284;58.364;15.550;2023-06-14T13:02:21;5.22;;;3.47;;
20251;SDS011;10284;58.364;15.550;2023-06-14T13:04:47;3.88;;;3.35;;
20251;SDS011;10284;58.364;15.550;2023-06-14T13:07:12;5.72;;;3.40;;
20251;SDS011;10284;58.364;15.550;2023-06-14T13:09:39;3.83;;;3.30;;
20251;SDS011;10284;58.364;15.550;2023-06-14T13:12:05;4.38;;;3.38;;
20251;SDS011;10284;58.364;15.550;2023-06-14T13:14:31;5.05;;;3.72;;
20251;SDS011;10284;58.364;15.550;2023-06-14T13:16:57;3.75;;;3.42;;
20251;SDS011;10284;58.364;15.550;2023-06-14T13:19:22;4.97;;;3.70;;
20251;SDS011;10284;58.364;15.550;2023-06-14T13:21:48;4.75;;;3.40;;
20251;SDS011;10284;58.364;15.550;2023-06-14T13:24:13;4.03;;;3.63;;
20251;SDS011;10284;58.364;15.550;2023-06-14T13:26:39;4.53;;;3.38;;
20251;SDS011;10284;58.364;15.550;2023-06-14T13:29:05;5.60;;;3.30;;
20251;SDS011;10284;58.364;15.550;2023-06-14T13:31:30;5.65;;;3.30;;
20251;SDS011;10284;58.364;15.550;2023-06-14T13:33:55;5.03;;;3.60;;
20251;SDS011;10284;58.364;15.550;2023-06-14T13:36:21;4.45;;;3.45;;
20251;SDS011;10284;58.364;15.550;2023-06-14T13:38:47;4.32;;;3.50;;
20251;SDS011;10284;58.364;15.550;2023-06-14T13:41:12;3.65;;;3.13;;
20251;SDS011;10284;58.364;15.550;2023-06-14T13:43:37;5.18;;;3.75;;
20251;SDS011;10284;58.364;15.550;2023-06-14T13:46:03;4.85;;;3.47;;
20251;SDS011;10284;58.364;15.550;2023-06-14T13:48:29;5.78;;;3.72;;
20251;SDS011;10284;58.364;15.550;2023-06-14T13:50:54;6.93;;;3.70;;
20251;SDS011;10284;58.364;15.550;2023-06-14T13:53:20;5.05;;;3.30;;
20251;SDS011;10284;58.364;15.550;2023-06-14T13:55:45;6.15;;;3.20;;
20251;SDS011;10284;58.364;15.550;2023-06-14T13:58:11;4.00;;;3.60;;
20251;SDS011;10284;58.364;15.550;2023-06-14T14:00:37;4.95;;;3.70;;
20251;SDS011;10284;58.364;15.550;2023-06-14T14:03:05;7.35;;;3.25;;
20251;SDS011;10284;58.364;15.550;2023-06-14T14:05:31;6.70;;;3.97;;
20251;SDS011;10284;58.364;15.550;2023-06-14T14:07:56;4.88;;;3.20;;
20251;SDS011;10284;58.364;15.550;2023-06-14T14:10:22;4.70;;;3.42;;
20251;SDS011;10284;58.364;15.550;2023-06-14T14:12:50;5.05;;;3.50;;
20251;SDS011;10284;58.364;15.550;2023-06-14T14:15:15;4.28;;;3.35;;
20251;SDS011;10284;58.364;15.550;2023-06-14T14:17:41;5.28;;;3.30;;
20251;SDS011;10284;58.364;15.550;2023-06-14T14:20:07;3.83;;;3.33;;
20251;SDS011;10284;58.364;15.550;2023-06-14T14:22:33;3.88;;;3.15;;
20251;SDS011;10284;58.364;15.550;2023-06-14T14:24:58;9.35;;;3.55;;
20251;SDS011;10284;58.364;15.550;2023-06-14T14:27:23;5.32;;;3.50;;
20251;SDS011;10284;58.364;15.550;2023-06-14T14:29:49;5.40;;;3.38;;
20251;SDS011;10284;58.364;15.550;2023-06-14T14:32:14;5.35;;;3.38;;
20251;SDS011;10284;58.364;15.550;2023-06-14T14:34:40;3.85;;;3.45;;
20251;SDS011;10284;58.364;15.550;2023-06-14T14:37:06;5.28;;;3.35;;
20251;SDS011;10284;58.364;15.550;2023-06-14T14:39:31;3.83;;;3.42;;
20251;SDS011;10284;58.364;15.550;2023-06-14T14:41:56;3.95;;;3.47;;
20251;SDS011;10284;58.364;15.550;2023-06-14T14:44:22;6.85;;;3.20;;
20251;SDS011;10284;58.364;15.550;2023-06-14T14:46:48;4.40;;;3.28;;
20251;SDS011;10284;58.364;15.550;2023-06-14T14:49:13;6.68;;;3.60;;
20251;SDS011;10284;58.364;15.550;2023-06-14T14:51:38;5.65;;;3.70;;
20251;SDS011;10284;58.364;15.550;2023-06-14T14:54:05;4.30;;;3.20;;